Latest Coastal Weather Observations for Hindmarsh Island

IDS60701

Issued at 1:55 am CST Thursday 21 August 2014 (issued every 10 minutes, with the page automatically refreshed every 10 minutes)

About coastal observations | Map of coastal stations | Coastal observations for SA | Marine services | Other Formats
Station Details ID: 023894 Name: HINDMARSH ISLAND AWS Lat: -35.52 Lon: 138.82 Height: 11.0 m
Data from the previous 72 hours. | See also: Recent months at Hindmarsh Island
Date/Time
CST
Temp

°C
Wind Pressure Rain
since 9am
mm
Weather Cloud Vis
km
Sea
Height
m
Swell
Dir
 
Speed
knots
Gust
knots
hPa Trend Height
m
Period
s
Dir
21/01:30am 6.2 N 4 5 1027.4 - 0.0 - - - - - - -
21/01:00am 6.8 NNW 5 5 1027.6 - 0.0 - - - - - - -
21/12:30am 6.9 N 5 6 1027.6 - 0.0 - - - - - - -
21/12:00am 7.3 NE 7 8 1027.6 - 0.0 - - - - - - -
 
Date/Time
CST
Temp

°C
Wind Pressure Rain
since 9am
mm
Weather Cloud Vis
km
Sea
Height
m
Swell
Dir
 
Speed
knots
Gust
knots
hPa Trend Height
m
Period
s
Dir
20/11:30pm 6.8 E 7 8 1027.6 - 0.0 - - - - - - -
20/11:00pm 7.0 E 6 7 1027.7 - 0.0 - - - - - - -
20/10:30pm 7.2 E 7 8 1027.7 - 0.0 - - - - - - -
20/10:00pm 7.0 E 8 8 1027.8 - 0.0 - - - - - - -
20/09:30pm 7.0 E 8 9 1027.8 - 0.0 - - - - - - -
20/09:00pm 7.6 E 8 9 1027.9 - 0.0 - - - - - - -
20/08:30pm 7.4 E 8 9 1027.8 - 0.0 - - - - - - -
20/08:00pm 7.8 E 7 8 1027.8 - 0.0 - - - - - - -
20/07:30pm 7.8 E 8 9 1027.6 - 0.0 - - - - - - -
20/07:00pm 8.3 E 7 8 1027.5 - 0.0 - - - - - - -
20/06:30pm 8.9 E 7 8 1027.4 - 0.0 - - - - - - -
20/06:00pm 10.3 SE 9 11 1027.1 - 0.0 - - - - - - -
20/05:30pm 11.1 SE 10 12 1026.9 - 0.0 - - - - - - -
20/05:00pm 11.6 SSE 8 11 1026.8 - 0.0 - - - - - - -
20/04:30pm 11.9 SSE 7 9 1026.9 - 0.0 - - - - - - -
20/04:00pm 12.1 SSE 9 11 1026.9 - 0.0 - - - - - - -
20/03:30pm 12.0 SE 12 14 1026.9 - 0.0 - - - - - - -
20/03:00pm 11.4 SSE 10 12 1026.9 - 0.0 - - - - - - -
20/02:30pm 13.0 SE 7 8 1026.9 - 0.0 - - - - - - -
20/02:00pm 12.6 S 8 11 1026.9 - 0.0 - - - - - - -
20/01:30pm 12.4 S 10 12 1027.0 - 0.0 - - - - - - -
20/01:00pm 12.5 SE 5 7 1027.3 - 0.0 - - - - - - -
20/12:30pm 12.1 SE 8 10 1027.6 - 0.0 - - - - - - -
20/12:00pm 12.0 ESE 9 13 1028.0 - 0.0 - - - - - - -
20/11:30am 11.9 ESE 10 13 1028.3 - 0.0 - - - - - - -
20/11:00am 12.4 E 9 13 1028.6 - 0.0 - - - - - - -
20/10:30am 11.6 ENE 11 14 1028.7 - 0.0 - - - - - - -
20/10:00am 11.3 ENE 11 13 1028.8 - 0.0 - - - - - - -
20/09:30am 10.7 NNE 7 9 1028.6 - 0.0 - - - - - - -
20/09:00am 9.9 NNE 7 9 1028.5 - 0.0 Haze Cloudy 8 - - - -
20/08:30am 9.5 NNE 7 8 1028.4 - 0.0 - - - - - - -
20/08:00am 9.0 NNE 6 8 1028.1 - 0.0 - - - - - - -
20/07:30am 8.5 ENE 5 7 1027.9 - 0.0 - - - - - - -
20/07:00am 8.4 ENE 7 8 1027.7 - 0.0 - - - - - - -
20/06:30am 8.2 NE 6 7 1027.4 - 0.0 - - - - - - -
20/06:00am 7.9 E 8 9 1027.1 - 0.0 - - - - - - -
20/05:30am 7.5 E 9 10 1026.9 - 0.0 - - - - - - -
20/05:00am 7.7 ENE 8 11 1026.6 - 0.0 - - - - - - -
20/04:30am 8.3 ENE 7 8 1026.4 - 0.0 - - - - - - -
20/04:00am 7.9 E 7 7 1026.2 - 0.0 - - - - - - -
20/03:30am 8.6 E 8 9 1026.1 - 0.0 - - - - - - -
20/03:00am 10.0 E 7 9 1026.1 - 0.0 - - - - - - -
20/02:30am 9.9 E 6 8 1026.3 - 0.0 - - - - - - -
20/02:00am 9.9 E 7 8 1026.4 - 0.0 - - - - - - -
20/01:30am 10.2 E 8 10 1026.3 - 0.0 - - - - - - -
20/01:00am 11.3 SSE 8 10 1026.4 - 0.0 - - - - - - -
20/12:30am 11.4 SSE 9 11 1026.5 - 0.0 - - - - - - -
20/12:00am 11.3 S 11 13 1026.5 - 0.0 - - - - - - -
 
Date/Time
CST
Temp

°C
Wind Pressure Rain
since 9am
mm
Weather Cloud Vis
km
Sea
Height
m
Swell
Dir
 
Speed
knots
Gust
knots
hPa Trend Height
m
Period
s
Dir
19/11:30pm 11.7 SE 12 16 1026.4 - 0.0 - - - - - - -
19/11:00pm 11.6 SE 13 15 1026.4 - 0.0 - - - - - - -
19/10:30pm 11.7 SE 14 16 1026.6 - 0.0 - - - - - - -
19/10:00pm 11.9 SE 14 17 1026.7 - 0.0 - - - - - - -
19/09:30pm 12.2 SE 11 13 1026.8 - 0.0 - - - - - - -
19/09:00pm 12.2 SE 11 13 1026.8 - 0.0 - - - - - - -
19/08:30pm 12.2 SE 13 15 1026.7 - 0.0 - - - - - - -
19/08:00pm 12.0 SSE 11 14 1026.7 - 0.0 - - - - - - -
19/07:30pm 12.2 SSE 14 17 1026.5 - 0.0 - - - - - - -
19/07:00pm 12.1 S 12 15 1026.4 - 0.0 - - - - - - -
19/06:30pm 11.7 SSE 11 14 1026.2 - 0.0 - - - - - - -
19/06:00pm 11.5 SSE 11 13 1026.0 - 0.0 - - - - - - -
19/05:30pm 11.7 S 11 14 1025.7 - 0.0 - - - - - - -
19/05:00pm 12.0 S 14 18 1025.5 - 0.0 - - - - - - -
19/04:30pm 12.4 S 12 13 1025.4 - 0.0 - - - - - - -
19/04:00pm 12.9 S 11 13 1025.3 - 0.0 - - - - - - -
19/03:30pm 13.0 S 9 13 1025.4 - 0.0 - - - - - - -
19/03:00pm 12.4 S 12 14 1025.4 - 0.0 - - - - - - -
19/02:30pm 13.2 SSW 7 9 1025.5 - 0.0 - - - - - - -
19/02:00pm 13.3 SSW 7 10 1025.4 - 0.0 - - - - - - -
19/01:30pm 13.3 S 7 9 1025.5 - 0.0 - - - - - - -
19/01:00pm 12.8 S 4 6 1025.8 - 0.0 - - - - - - -
19/12:30pm 12.4 SE 4 6 1026.1 - 0.0 - - - - - - -
19/12:00pm 10.6 E 7 12 1026.7 - 0.0 - - - - - - -
19/11:30am 12.0 S 11 19 1026.7 - 0.0 - - - - - - -
19/11:00am 12.7 SE 6 8 1026.8 - 0.0 - - - - - - -
19/10:30am 12.0 SE 6 8 1026.9 - 0.0 - - - - - - -
19/10:00am 11.1 ESE 11 15 1027.0 - 0.0 - - - - - - -
19/09:30am 10.7 ESE 11 15 1026.9 - 0.0 - - - - - - -
19/09:00am 10.3 NE 3 4 1026.9 - 0.4 Haze Mostly cloudy 8 - - - -
19/08:30am 9.9 CALM 0 3 1026.7 - 0.4 - - - - - - -
19/08:00am 9.5 NE 4 5 1026.5 - 0.4 - - - - - - -
19/07:30am 8.6 NE 5 6 1026.2 - 0.4 - - - - - - -
19/07:00am 9.3 ESE 10 12 1026.1 - 0.4 - - - - - - -
19/06:30am 9.5 ESE 8 11 1025.8 - 0.2 - - - - - - -
19/06:00am 9.5 ESE 7 8 1025.5 - 0.2 - - - - - - -
19/05:30am 9.1 E 7 8 1025.2 - 0.2 - - - - - - -
19/05:00am 10.1 SE 15 19 1024.8 - 0.2 - - - - - - -
19/04:30am 10.3 SE 17 19 1024.8 - 0.2 - - - - - - -
19/04:23am 10.5 ESE 15 19 1024.7 - 0.2 - - - - - - -
19/04:00am 9.3 E 5 8 1024.8 - 0.2 - - - - - - -
19/03:30am 9.8 NE 5 6 1025.0 - 0.2 - - - - - - -
19/03:00am 10.4 S 4 8 1025.0 - 0.2 - - - - - - -
19/02:30am 10.8 SSE 10 12 1025.1 - 0.2 - - - - - - -
19/02:00am 10.5 CALM 0 0 1025.2 - 0.2 - - - - - - -
19/01:30am 10.3 ENE 4 5 1025.2 - 0.2 - - - - - - -
19/01:00am 10.5 ESE 5 7 1025.3 - 0.2 - - - - - - -
19/12:30am 10.7 ESE 8 10 1025.2 - 0.2 - - - - - - -
19/12:00am 11.6 ESE 14 19 1025.3 - 0.2 - - - - - - -
 
Date/Time
CST
Temp

°C
Wind Pressure Rain
since 9am
mm
Weather Cloud Vis
km
Sea
Height
m
Swell
Dir
 
Speed
knots
Gust
knots
hPa Trend Height
m
Period
s
Dir
18/11:30pm 11.9 SSE 13 16 1025.3 - 0.2 - - - - - - -
18/11:00pm 11.9 S 10 12 1025.5 - 0.2 - - - - - - -
18/10:30pm 11.5 S 9 11 1025.6 - 0.2 - - - - - - -
18/10:00pm 11.1 S 10 13 1025.5 - 0.2 - - - - - - -
18/09:30pm 11.0 SSE 10 12 1025.5 - 0.2 - - - - - - -
18/09:00pm 11.7 SSE 13 15 1025.5 - 0.2 - - - - - - -
18/08:30pm 11.7 SSE 10 11 1025.3 - 0.2 - - - - - - -
18/08:00pm 11.3 SSE 9 11 1025.3 - 0.2 - - - - - - -
18/07:30pm 11.5 SSE 11 13 1025.0 - 0.2 - - - - - - -
18/07:00pm 10.8 S 8 11 1024.7 - 0.2 - - - - - - -
18/06:30pm 11.2 S 8 10 1024.4 - 0.2 - - - - - - -
18/06:00pm 11.0 S 7 8 1024.1 - 0.2 - - - - - - -
18/05:30pm 11.2 S 8 8 1023.9 - 0.2 - - - - - - -
18/05:00pm 11.6 S 8 9 1023.8 - 0.2 - - - - - - -
18/04:30pm 12.1 S 8 10 1023.5 - 0.2 - - - - - - -
18/04:00pm 12.4 S 10 12 1023.4 - 0.2 - - - - - - -
18/03:30pm 13.3 S 10 14 1023.4 - 0.2 - - - - - - -
18/03:00pm 13.2 S 9 11 1023.3 - 0.2 - - - - - - -
18/02:30pm 13.0 S 8 11 1023.4 - 0.2 - - - - - - -
18/02:00pm 12.9 S 9 12 1023.4 - 0.2 - - - - - - -
18/01:30pm 12.7 SSE 9 11 1023.3 - 0.2 - - - - - - -
18/01:00pm 12.5 SSE 9 12 1023.6 - 0.0 - - - - - - -
18/12:30pm 12.8 SE 9 11 1023.9 - 0.0 - - - - - - -
18/12:00pm 13.2 ESE 7 11 1024.4 - 0.0 - - - - - - -
18/11:30am 12.5 SE 7 11 1024.7 - 0.0 - - - - - - -
18/11:00am 12.3 ESE 7 10 1025.0 - 0.0 - - - - - - -
18/10:30am 12.0 E 5 7 1025.2 - 0.0 - - - - - - -
18/10:00am 11.1 E 7 9 1025.2 - 0.0 - - - - - - -
18/09:30am 10.9 NNE 4 6 1025.0 - 0.0 - - - - - - -
18/09:00am 10.6 NNE 5 7 1024.9 - 1.4 Haze Cloudy 6 - - - -
18/08:30am 10.7 NNE 5 7 1024.6 - 1.4 - - - - - - -
18/08:00am 9.9 NE 5 8 1024.4 - 1.4 - - - - - - -
18/07:30am 10.0 ENE 7 8 1024.2 - 1.2 - - - - - - -
18/07:00am 10.9 S 9 11 1023.9 - 1.2 - - - - - - -
18/06:30am 10.5 S 9 11 1023.6 - 1.2 - - - - - - -
18/06:00am 10.7 S 12 15 1023.2 - 1.2 - - - - - - -
18/05:30am 10.7 S 12 14 1023.0 - 1.2 - - - - - - -
18/05:00am 10.4 S 11 14 1022.9 - 1.0 - - - - - - -
18/04:30am 9.3 W 5 6 1022.7 - 1.0 - - - - - - -
18/04:00am 9.5 WNW 4 6 1022.7 - 1.0 - - - - - - -
18/03:30am 9.6 WSW 3 4 1022.8 - 1.0 - - - - - - -
18/03:00am 10.0 CALM 0 3 1022.9 - 1.0 - - - - - - -
18/02:30am 10.4 CALM 0 3 1023.1 - 1.0 - - - - - - -
18/02:00am 10.2 CALM 0 0 1023.5 - 1.0 - - - - - - -

Other Formats:

Comma delimited format used in spreadsheet applications
http://www.bom.gov.au/fwo/IDS60701/IDS60701.94677.axf

JavaScript Object Notation format (JSON) in row-major order
http://www.bom.gov.au/fwo/IDS60701/IDS60701.94677.json